Latest Weather Observations for Adelaide (West Terrace / ngayirdapira)

IDS60901

Issued at 5:31 pm CST Monday 25 September 2017 (issued every 10 minutes, with the page automatically refreshed every 10 minutes)

About weather observations | Map of Adelaide area stations | Latest observations for Adelaide area | Other Formats
Station Details ID: 023000 Name: ADELAIDE (WEST TERRACE / NGAYIRDAPIRA) Lat: -34.93 Lon: 138.58 Height: 29.32 m
Data from the previous 72 hours. | See also: Recent months at Adelaide (West Terrace / ngayirdapira)
Date/Time
CST
Temp
°C
App
Temp
°C
Dew
Point
°C
Rel
Hum
%
Delta-T
°C
Wind Press
QNH
hPa
Press
MSL
hPa
Rain since
9am
mm
Dir  Spd
km/h
Gust
km/h
Spd
kts
Gust
kts
25/05:00pm 16.4 13.3 7.3 55 4.5 SW 13 19 7 10 1013.7 1013.7 0.0
25/04:30pm 16.8 13.5 6.6 51 5.0 SW 13 20 7 11 1013.6 1013.6 0.0
25/04:00pm 17.1 13.5 6.6 50 5.2 SSW 15 19 8 10 1013.6 1013.6 0.0
25/03:30pm 16.8 13.1 6.3 50 5.1 WSW 15 20 8 11 1013.7 1013.7 0.0
25/03:00pm 16.9 13.6 6.4 50 5.2 SW 13 20 7 11 1013.7 1013.7 0.0
25/02:30pm 17.0 14.2 7.1 52 4.9 SW 11 20 6 11 1013.8 1013.8 0.0
25/02:00pm 17.2 14.7 8.4 56 4.5 WSW 11 20 6 11 1014.0 1014.0 0.0
25/01:30pm 16.6 13.7 8.3 58 4.2 WSW 13 17 7 9 1014.2 1014.2 0.0
25/01:00pm 16.1 13.2 8.1 59 4.0 SW 13 22 7 12 1014.2 1014.2 0.0
25/12:30pm 16.5 13.9 9.4 63 3.7 SW 13 22 7 12 1014.3 1014.3 0.0
25/12:00pm 16.2 13.2 9.4 64 3.5 WSW 15 20 8 11 1014.3 1014.3 0.0
25/11:30am 16.4 14.0 10.0 66 3.4 WSW 13 24 7 13 1014.2 1014.2 0.0
25/11:00am 16.2 13.5 10.3 68 3.1 WSW 15 22 8 12 1014.1 1014.1 0.0
25/10:30am 15.6 13.0 9.5 67 3.2 WSW 13 20 7 11 1014.0 1014.0 0.0
25/10:00am 14.9 12.1 8.4 65 3.3 W 13 20 7 11 1014.0 1014.0 0.0
25/09:30am 15.1 12.0 8.8 66 3.2 SW 15 20 8 11 1013.8 1013.8 0.0
25/09:00am 13.8 11.0 8.4 70 2.7 W 13 20 7 11 1013.9 1013.9 0.0
25/08:30am 13.6 11.4 9.3 75 2.2 W 11 20 6 11 1013.5 1013.5 0.0
25/08:00am 11.7 9.5 8.0 78 1.8 N 9 13 5 7 1013.2 1013.2 0.0
25/07:30am 11.8 9.6 7.7 76 2.0 NW 9 13 5 7 1012.6 1012.6 0.0
25/07:00am 12.6 11.1 9.2 80 1.7 W 7 13 4 7 1012.1 1012.1 0.0
25/06:30am 11.6 9.9 8.5 81 1.5 SW 7 11 4 6 1011.0 1011.0 0.0
25/06:00am 11.3 9.6 8.5 83 1.4 WSW 7 11 4 6 1010.7 1010.7 0.0
25/05:30am 11.6 9.5 8.3 80 1.6 WSW 9 17 5 9 1010.6 1010.6 0.0
25/05:00am 11.5 9.3 8.0 79 1.7 WSW 9 17 5 9 1010.6 1010.6 0.0
25/04:30am 11.8 8.8 7.9 77 1.9 WSW 13 20 7 11 1010.4 1010.4 0.0
25/04:00am 12.3 9.8 8.4 77 1.9 W 11 20 6 11 1010.3 1010.3 0.0
25/03:30am 12.4 9.4 7.9 74 2.2 WNW 13 19 7 10 1010.2 1010.2 0.0
25/03:00am 12.1 9.6 8.2 77 1.9 W 11 15 6 8 1010.0 1010.0 0.0
25/02:30am 12.2 9.4 8.5 78 1.8 W 13 20 7 11 1009.9 1009.9 0.0
25/02:00am 12.5 9.8 8.8 78 1.9 WNW 13 20 7 11 1009.9 1009.9 0.0
25/01:30am 12.7 9.9 8.6 76 2.0 W 13 19 7 10 1009.9 1009.9 0.0
25/01:00am 12.8 9.5 8.1 73 2.3 W 15 24 8 13 1010.0 1010.0 0.0
25/12:30am 12.3 9.7 7.6 73 2.3 W 11 20 6 11 1010.0 1010.0 0.0
25/12:00am 12.6 9.1 7.3 70 2.6 W 15 24 8 13 1010.0 1010.0 0.0
 
Date/Time
CST
Temp
°C
App
Temp
°C
Dew
Point
°C
Rel
Hum
%
Delta-T
°C
Wind Press
QNH
hPa
Press
MSL
hPa
Rain since
9am
mm
Dir  Spd
km/h
Gust
km/h
Spd
kts
Gust
kts
24/11:30pm 12.7 9.2 7.2 69 2.7 W 15 24 8 13 1010.1 1010.1 0.0
24/11:00pm 12.8 8.8 6.6 66 3.0 W 17 28 9 15 1010.1 1010.1 0.0
24/10:30pm 13.0 8.9 6.4 64 3.2 W 17 24 9 13 1009.8 1009.8 0.0
24/10:00pm 13.2 9.1 6.1 62 3.4 WNW 17 24 9 13 1010.0 1010.0 0.0
24/09:30pm 13.3 9.4 7.3 67 2.9 WNW 17 30 9 16 1009.8 1009.8 0.0
24/09:00pm 13.6 9.2 7.2 65 3.1 W 20 28 11 15 1009.7 1009.7 0.0
24/08:30pm 13.8 9.6 7.3 65 3.2 W 19 28 10 15 1009.5 1009.5 0.0
24/08:00pm 14.4 10.1 7.7 64 3.3 W 20 39 11 21 1009.2 1009.2 0.0
24/07:30pm 14.6 10.5 7.9 64 3.3 W 19 28 10 15 1008.8 1008.8 0.0
24/07:00pm 14.6 10.6 8.1 65 3.3 W 19 28 10 15 1008.3 1008.3 0.0
24/06:30pm 14.8 10.6 7.6 62 3.6 WNW 19 26 10 14 1007.9 1007.9 0.0
24/06:00pm 15.1 11.3 7.4 60 3.8 WNW 17 28 9 15 1007.7 1007.7 0.0
24/05:30pm 15.2 10.0 7.3 59 3.9 W 24 39 13 21 1007.3 1007.3 0.0
24/05:00pm 15.9 11.3 6.6 54 4.6 WNW 20 35 11 19 1006.9 1006.8 0.0
24/04:30pm 16.5 11.7 7.4 55 4.6 W 22 33 12 18 1006.5 1006.4 0.0
24/04:05pm 16.9 10.8 6.4 50 5.2 W 28 48 15 26 1006.3 1006.2 0.0
24/04:00pm 16.6 11.0 5.6 48 5.3 W 24 41 13 22 1006.2 1006.1 0.0
24/03:30pm 17.1 11.8 6.6 50 5.2 W 24 41 13 22 1006.0 1005.9 0.0
24/03:00pm 16.9 11.1 6.1 49 5.3 W 26 43 14 23 1005.8 1005.7 0.0
24/02:30pm 17.4 13.1 7.7 53 4.9 W 20 32 11 17 1006.0 1005.9 0.0
24/02:00pm 16.3 11.7 8.0 58 4.2 W 22 35 12 19 1005.9 1005.8 0.0
24/01:30pm 17.4 12.4 8.0 54 4.8 WNW 24 37 13 20 1005.9 1005.8 0.0
24/01:00pm 17.3 11.8 7.4 52 5.0 WNW 26 44 14 24 1005.8 1005.7 0.0
24/12:57pm 17.2 11.4 7.8 54 4.8 WNW 28 46 15 25 1005.8 1005.7 0.0
24/12:30pm 15.0 11.0 9.1 68 3.0 WNW 20 30 11 16 1005.9 1005.8 0.0
24/12:07pm 15.8 10.1 8.5 62 3.7 WNW 28 46 15 25 1005.8 1005.7 0.0
24/12:00pm 15.9 9.8 8.2 60 3.9 NW 30 46 16 25 1005.7 1005.6 0.0
24/11:41am 15.8 10.0 8.1 60 3.9 WNW 28 48 15 26 1005.7 1005.6 0.0
24/11:30am 16.1 10.8 8.6 61 3.8 WNW 26 39 14 21 1005.7 1005.6 0.0
24/11:06am 15.8 10.0 8.1 60 3.9 WNW 28 46 15 25 1005.6 1005.5 0.0
24/11:00am 15.1 9.3 8.1 63 3.5 WNW 28 44 15 24 1005.6 1005.5 0.0
24/10:30am 14.7 10.7 8.9 68 3.0 WNW 20 35 11 19 1005.4 1005.3 0.0
24/10:00am 14.7 9.4 8.4 66 3.2 NW 26 39 14 21 1005.4 1005.3 0.0
24/09:30am 14.8 9.1 8.5 66 3.2 NW 28 43 15 23 1005.6 1005.5 0.0
24/09:00am 14.9 10.5 9.1 68 3.0 NW 22 35 12 19 1005.4 1005.3 0.0
24/08:30am 13.9 8.3 8.7 71 2.6 NW 28 44 15 24 1005.2 1005.1 0.0
24/08:15am 14.1 8.5 8.9 71 2.6 NW 28 48 15 26 1005.0 1004.9 0.0
24/08:00am 14.2 9.5 9.2 72 2.6 NW 24 37 13 20 1004.9 1004.8 0.0
24/07:30am 13.7 9.0 9.2 74 2.3 NW 24 43 13 23 1004.6 1004.5 0.0
24/07:00am 13.4 9.7 9.3 76 2.1 NW 19 30 10 16 1004.5 1004.4 0.0
24/06:30am 13.1 9.4 9.4 78 1.9 NW 19 28 10 15 1004.2 1004.1 0.0
24/06:00am 13.1 9.4 9.4 78 1.9 NW 19 32 10 17 1004.0 1003.9 0.0
24/05:30am 13.3 10.0 9.4 77 2.0 NW 17 24 9 13 1003.8 1003.7 0.0
24/05:00am 13.3 10.0 9.4 77 2.0 NW 17 28 9 15 1003.4 1003.3 0.0
24/04:30am 13.4 10.0 9.3 76 2.1 WNW 17 28 9 15 1003.2 1003.1 0.0
24/04:00am 13.2 9.8 9.1 76 2.1 WNW 17 32 9 17 1003.0 1002.9 0.0
24/03:30am 13.4 10.1 9.5 77 2.0 WNW 17 26 9 14 1002.9 1002.8 0.0
24/03:00am 13.7 10.3 10.5 81 1.7 WNW 19 32 10 17 1003.0 1002.9 0.0
24/02:30am 13.8 10.2 10.6 81 1.7 WNW 20 30 11 16 1003.0 1002.9 0.0
24/02:00am 13.9 10.9 10.7 81 1.7 WNW 17 26 9 14 1003.0 1002.9 0.0
24/01:30am 13.8 10.4 10.4 80 1.8 NW 19 30 10 16 1003.4 1003.3 0.0
24/01:00am 14.0 10.6 10.4 79 1.9 NW 19 33 10 18 1003.4 1003.3 0.0
24/12:30am 14.0 10.3 10.2 78 2.0 NW 20 30 11 16 1003.8 1003.7 0.0
24/12:00am 14.3 10.6 10.1 76 2.2 NW 20 35 11 19 1004.1 1004.0 0.0
 
Date/Time
CST
Temp
°C
App
Temp
°C
Dew
Point
°C
Rel
Hum
%
Delta-T
°C
Wind Press
QNH
hPa
Press
MSL
hPa
Rain since
9am
mm
Dir  Spd
km/h
Gust
km/h
Spd
kts
Gust
kts
23/11:30pm 14.3 11.1 10.1 76 2.2 NW 17 28 9 15 1004.3 1004.2 0.0
23/11:00pm 14.3 11.1 9.9 75 2.3 NW 17 28 9 15 1004.4 1004.3 0.0
23/10:30pm 14.7 11.1 9.7 72 2.6 WNW 19 28 10 15 1004.4 1004.3 0.0
23/10:00pm 14.6 10.7 9.6 72 2.6 WNW 20 32 11 17 1004.6 1004.5 0.0
23/09:30pm 14.9 10.7 9.7 71 2.7 WNW 22 35 12 19 1004.6 1004.5 0.0
23/09:00pm 15.1 11.8 9.7 70 2.8 WNW 17 26 9 14 1004.6 1004.5 0.0
23/08:30pm 15.1 11.8 9.7 70 2.8 WNW 17 30 9 16 1004.8 1004.7 0.0
23/08:00pm 15.3 12.5 9.9 70 2.8 WNW 15 24 8 13 1004.7 1004.6 0.0
23/07:30pm 15.6 12.8 9.9 69 3.0 WNW 15 26 8 14 1004.3 1004.2 0.0
23/07:00pm 15.4 12.8 9.5 68 3.1 WNW 13 20 7 11 1003.8 1003.7 0.0
23/06:30pm 15.9 12.6 9.6 66 3.3 WNW 17 24 9 13 1003.5 1003.4 0.0
23/06:00pm 16.2 12.9 9.6 65 3.5 WNW 17 30 9 16 1003.2 1003.1 0.0
23/05:30pm 17.2 13.2 9.1 59 4.2 W 20 35 11 19 1002.9 1002.8 0.0
23/05:00pm 17.8 13.3 8.6 55 4.7 WNW 22 39 12 21 1002.6 1002.6 0.0
23/04:30pm 18.4 13.6 8.7 53 5.1 WNW 24 37 13 20 1002.6 1002.6 0.0
23/04:00pm 18.8 14.2 9.6 55 4.9 WNW 24 43 13 23 1002.5 1002.5 0.0
23/03:30pm 18.9 13.6 9.7 55 4.9 W 28 43 15 23 1002.2 1002.2 0.0
23/03:00pm 19.2 14.2 9.4 53 5.2 WNW 26 41 14 22 1002.1 1002.1 0.0
23/02:30pm 18.6 14.2 8.8 53 5.1 WNW 22 43 12 23 1001.7 1001.7 0.0
23/02:00pm 20.3 15.4 9.8 51 5.6 WNW 26 44 14 24 1001.2 1001.2 0.0
23/01:30pm 20.2 14.6 8.8 48 6.0 WNW 28 50 15 27 1000.9 1000.9 0.0
23/01:01pm 20.5 15.2 11.2 55 5.1 WNW 30 48 16 26 1000.5 1000.5 0.0
23/01:00pm 20.5 14.7 10.9 54 5.3 WNW 32 48 17 26 1000.5 1000.5 0.0
23/12:30pm 20.8 15.6 11.7 56 5.1 WNW 30 52 16 28 1000.2 1000.2 0.0
23/12:00pm 21.1 15.6 11.7 55 5.3 WNW 32 52 17 28 999.5 999.5 0.0
23/11:31am 21.9 16.5 11.0 50 6.0 WNW 30 52 16 28 998.7 998.7 0.0
23/11:30am 22.0 16.7 11.4 51 5.9 WNW 30 41 16 22 998.6 998.6 0.0
23/11:00am 21.8 18.8 12.4 55 5.3 NNW 20 35 11 19 998.1 998.1 0.0
23/10:30am 20.1 17.1 12.6 62 4.3 NNW 20 30 11 16 997.4 997.4 0.0
23/10:00am 20.1 17.1 12.6 62 4.2 N 20 28 11 15 997.2 997.2 0.0
23/09:30am 19.9 18.5 13.4 66 3.7 N 13 22 7 12 997.0 997.0 0.0
23/09:00am 19.7 17.6 11.2 58 4.7 N 13 20 7 11 996.8 996.8 0.0
23/08:30am 18.9 16.1 9.9 56 4.8 NE 15 20 8 11 996.4 996.4 0.0
23/08:00am 18.6 16.7 10.4 59 4.4 ENE 11 17 6 9 996.0 996.0 0.0
23/07:30am 17.6 16.9 10.2 62 4.0 N 4 7 2 4 995.8 995.8 0.0
23/07:00am 16.4 15.5 11.3 72 2.8 ESE 7 13 4 7 995.1 995.1 0.0
23/06:30am 15.7 14.4 11.1 74 2.5 NW 9 15 5 8 995.0 995.0 0.0
23/06:00am 14.3 14.5 10.5 78 2.0 CALM 0 0 0 0 994.1 994.1 0.0
23/05:30am 14.7 13.8 10.5 76 2.2 W 6 11 3 6 994.0 994.0 0.0
23/05:00am 16.1 14.6 10.4 69 3.0 NE 9 15 5 8 994.3 994.3 0.0
23/04:30am 14.5 13.7 9.7 73 2.5 ENE 4 9 2 5 994.3 994.3 0.0
23/04:00am 16.0 14.9 10.1 68 3.1 SE 6 9 3 5 995.4 995.4 0.0
23/03:30am 17.6 15.6 10.0 61 4.1 WNW 11 19 6 10 996.5 996.5 0.0
23/03:00am 18.4 15.9 9.7 57 4.6 ESE 13 20 7 11 996.4 996.4 0.0
23/02:55am 17.8 15.8 10.2 61 4.0 SE 11 15 6 8 996.7 996.7 0.0
23/02:30am 17.7 16.8 10.6 63 3.8 ENE 6 17 3 9 998.7 998.7 0.0
23/02:00am 17.8 16.3 10.7 63 3.8 SSW 9 19 5 10 998.7 998.7 0.0
23/01:30am 17.6 16.6 10.2 62 4.0 NW 6 13 3 7 998.2 998.2 0.0
23/01:00am 18.4 15.9 9.7 57 4.6 NE 13 19 7 10 997.9 997.9 0.0
23/12:30am 19.3 17.3 10.3 56 4.9 ENE 11 17 6 9 999.4 999.4 0.0
23/12:24am 19.1 17.5 10.1 56 4.8 ENE 9 17 5 9 999.5 999.5 0.0
23/12:00am 18.1 16.6 10.5 61 4.1 SSW 9 15 5 8 1001.5 1001.5 0.0
 
Date/Time
CST
Temp
°C
App
Temp
°C
Dew
Point
°C
Rel
Hum
%
Delta-T
°C
Wind Press
QNH
hPa
Press
MSL
hPa
Rain since
9am
mm
Dir  Spd
km/h
Gust
km/h
Spd
kts
Gust
kts
22/11:30pm 18.7 16.4 10.5 59 4.4 SW 13 28 7 15 1002.0 1002.0 0.0
22/11:00pm 19.6 16.5 10.3 55 5.0 SSW 17 33 9 18 1001.8 1001.8 0.0
22/10:30pm 20.1 18.8 9.9 52 5.5 WSW 7 20 4 11 1001.8 1001.8 0.0
22/10:00pm 21.0 20.1 10.5 51 5.7 E 6 13 3 7 1001.0 1001.0 0.0
22/09:30pm 21.3 19.8 10.5 50 5.9 NE 9 13 5 7 1001.7 1001.7 0.0
22/09:00pm 20.7 19.5 11.6 56 5.1 E 9 15 5 8 1002.0 1002.0 0.0
22/08:30pm 20.8 19.8 10.9 53 5.5 SE 7 13 4 7 1002.3 1002.3 0.0
22/08:00pm 22.3 20.2 8.1 40 7.5 SE 9 11 5 6 1002.4 1002.4 0.0
22/07:30pm 21.2 19.7 8.5 44 6.7 SE 6 9 3 5 1002.3 1002.3 0.0
22/07:00pm 21.3 19.8 9.2 46 6.5 SSE 7 11 4 6 1002.3 1002.3 0.0
22/06:30pm 23.4 22.3 7.1 35 8.5 NNW 2 26 1 14 1002.1 1002.1 0.0
22/06:00pm 26.4 25.5 5.9 27 10.7 CALM 0 0 0 0 1002.0 1002.0 0.0

Latest Capital City Observations: Canberra | Sydney | Melbourne | Brisbane | Adelaide | Perth | Hobart | Darwin

Other Formats:

Comma delimited format used in spreadsheet applications
http://www.bom.gov.au/fwo/IDS60901/IDS60901.94648.axf

JavaScript Object Notation format (JSON) in row-major order
http://www.bom.gov.au/fwo/IDS60901/IDS60901.94648.json